createdAt,value
2023-05-01T00:01:52.490Z,5.60
2023-05-01T00:04:20.535Z,4.10
2023-05-01T00:06:47.576Z,4.10
2023-05-01T00:09:14.474Z,4.50
2023-05-01T00:11:41.397Z,4.80
2023-05-01T00:14:08.289Z,4.90
2023-05-01T00:16:36.366Z,4.50
2023-05-01T00:19:04.877Z,4.70
2023-05-01T00:21:31.764Z,5.00
2023-05-01T00:23:58.863Z,4.70
2023-05-01T00:26:29.987Z,4.20
2023-05-01T00:28:58.422Z,3.60
2023-05-01T00:31:26.225Z,4.00
2023-05-01T00:33:53.423Z,4.40
2023-05-01T00:36:20.549Z,4.40
2023-05-01T00:38:47.594Z,4.70
2023-05-01T00:41:14.614Z,4.70
2023-05-01T00:43:41.538Z,4.70
2023-05-01T00:46:08.877Z,5.00
2023-05-01T00:48:36.241Z,3.90
2023-05-01T00:51:07.650Z,3.50
2023-05-01T00:53:34.715Z,3.80
2023-05-01T00:56:02.125Z,4.30
2023-05-01T00:58:29.656Z,4.90
2023-05-01T01:00:57.070Z,4.70
2023-05-01T01:03:24.042Z,4.40
2023-05-01T01:06:03.822Z,4.70
2023-05-01T01:08:39.343Z,3.60
2023-05-01T01:11:19.900Z,3.30
2023-05-01T01:13:56.252Z,3.80
2023-05-01T01:16:46.490Z,3.80
2023-05-01T01:19:42.029Z,4.00
2023-05-01T01:22:13.850Z,3.90
2023-05-01T01:25:15.062Z,4.20
2023-05-01T01:27:48.591Z,4.60
2023-05-01T01:30:40.973Z,3.80
2023-05-01T01:33:42.125Z,3.80
2023-05-01T01:36:16.028Z,3.70
2023-05-01T01:38:46.919Z,3.70
2023-05-01T01:41:21.642Z,3.90
2023-05-01T01:44:02.313Z,4.10
2023-05-01T01:46:35.922Z,4.00
2023-05-01T01:49:09.616Z,4.20
2023-05-01T01:51:40.862Z,3.60
2023-05-01T01:54:12.216Z,3.30
2023-05-01T01:56:42.190Z,3.30
2023-05-01T01:59:11.334Z,3.70
2023-05-01T02:01:41.953Z,4.40
2023-05-01T02:04:11.569Z,3.80
2023-05-01T02:06:40.632Z,3.70
2023-05-01T02:09:10.986Z,3.90
2023-05-01T02:11:39.430Z,3.20
2023-05-01T02:14:09.347Z,2.90
2023-05-01T02:16:37.484Z,3.40
2023-05-01T02:19:05.888Z,3.40
2023-05-01T02:21:35.880Z,3.90
2023-05-01T02:24:04.277Z,3.70
2023-05-01T02:26:36.195Z,3.70
2023-05-01T02:29:03.233Z,3.70
2023-05-01T02:31:30.282Z,3.60
2023-05-01T02:33:57.201Z,2.80
2023-05-01T02:36:24.113Z,2.70
2023-05-01T02:38:51.537Z,3.50
2023-05-01T02:41:22.769Z,4.10
2023-05-01T02:43:55.484Z,3.80
2023-05-01T02:46:25.943Z,3.20
2023-05-01T02:48:55.080Z,3.90
2023-05-01T02:51:23.756Z,3.60
2023-05-01T02:53:51.018Z,4.10
2023-05-01T02:56:20.318Z,3.30
2023-05-01T02:58:50.749Z,2.80
2023-05-01T03:01:17.834Z,3.20
2023-05-01T03:03:44.818Z,3.30
2023-05-01T03:06:11.836Z,3.40
2023-05-01T03:08:38.762Z,3.80
2023-05-01T03:11:07.006Z,3.70
2023-05-01T03:13:35.043Z,3.10
2023-05-01T03:16:02.486Z,3.30
2023-05-01T03:18:30.515Z,3.40
2023-05-01T03:20:57.405Z,2.50
2023-05-01T03:23:25.922Z,3.00
2023-05-01T03:25:52.973Z,3.20
2023-05-01T03:28:23.713Z,3.10
2023-05-01T03:30:54.643Z,3.40
2023-05-01T03:33:22.209Z,3.30
2023-05-01T03:35:49.479Z,3.50
2023-05-01T03:38:16.706Z,3.40
2023-05-01T03:41:13.051Z,3.10
2023-05-01T03:43:58.689Z,2.70
2023-05-01T03:46:38.855Z,3.10
2023-05-01T03:49:07.663Z,2.90
2023-05-01T03:51:40.978Z,3.10
2023-05-01T03:54:08.316Z,3.20
2023-05-01T03:56:49.263Z,3.50
2023-05-01T03:59:18.387Z,3.40
2023-05-01T04:01:45.365Z,2.90
2023-05-01T04:04:12.657Z,2.80
2023-05-01T04:06:42.180Z,2.60
2023-05-01T04:09:09.744Z,2.70
2023-05-01T04:11:36.799Z,3.10
2023-05-01T04:14:04.278Z,2.80
2023-05-01T04:16:36.239Z,3.20
2023-05-01T04:19:03.831Z,3.20
2023-05-01T04:21:32.265Z,3.20
2023-05-01T04:23:59.199Z,2.70
2023-05-01T04:26:29.690Z,3.20
2023-05-01T04:28:56.782Z,2.80
2023-05-01T04:31:25.372Z,2.80
2023-05-01T04:33:53.031Z,3.20
2023-05-01T04:36:20.275Z,3.00
2023-05-01T04:38:47.427Z,3.20
2023-05-01T04:41:14.942Z,2.90
2023-05-01T04:43:42.041Z,3.10
2023-05-01T04:46:09.619Z,2.90
2023-05-01T04:48:36.848Z,2.50
2023-05-01T04:51:04.508Z,2.60
2023-05-01T04:53:33.609Z,2.90
2023-05-01T04:56:01.795Z,2.90
2023-05-01T04:58:30.789Z,2.90
2023-05-01T05:01:01.337Z,3.00
2023-05-01T05:03:28.958Z,2.60
2023-05-01T05:05:56.319Z,2.70
2023-05-01T05:08:23.782Z,2.40
2023-05-01T05:11:02.617Z,3.40
2023-05-01T05:13:34.252Z,2.50
2023-05-01T05:16:04.184Z,2.70
2023-05-01T05:18:31.892Z,3.00
2023-05-01T05:20:59.800Z,3.00
2023-05-01T05:23:27.552Z,3.30
2023-05-01T05:25:54.507Z,2.60
2023-05-01T05:28:21.521Z,2.30
2023-05-01T05:30:48.505Z,2.50
2023-05-01T05:33:17.037Z,2.50
2023-05-01T05:35:44.119Z,3.30
2023-05-01T05:38:11.281Z,3.00
2023-05-01T05:40:39.361Z,2.80
2023-05-01T05:43:07.011Z,3.00
2023-05-01T05:45:35.117Z,2.60
2023-05-01T05:48:03.134Z,2.50
2023-05-01T05:50:31.636Z,2.40
2023-05-01T05:52:58.987Z,2.50
2023-05-01T05:55:26.755Z,2.80
2023-05-01T05:58:04.163Z,2.70
2023-05-01T06:00:31.509Z,3.10
2023-05-01T06:03:01.352Z,2.70
2023-05-01T06:05:29.846Z,2.70
2023-05-01T06:07:56.962Z,2.90
2023-05-01T06:10:24.096Z,2.70
2023-05-01T06:12:58.299Z,2.60
2023-05-01T06:15:38.872Z,2.60
2023-05-01T06:18:06.520Z,2.80
2023-05-01T06:20:33.582Z,2.70
2023-05-01T06:23:00.942Z,3.00
2023-05-01T06:25:51.900Z,2.80
2023-05-01T06:28:19.829Z,2.60
2023-05-01T06:30:48.093Z,2.10
2023-05-01T06:33:15.953Z,2.40
2023-05-01T06:35:43.767Z,2.60
2023-05-01T06:38:10.792Z,2.80
2023-05-01T06:40:38.202Z,2.40
2023-05-01T06:43:05.562Z,2.80
2023-05-01T06:45:32.859Z,2.80
2023-05-01T06:48:00.060Z,2.60
2023-05-01T06:50:27.447Z,2.30
2023-05-01T06:52:56.020Z,2.60
2023-05-01T06:55:23.277Z,2.60
2023-05-01T06:57:51.388Z,2.20
2023-05-01T07:00:19.106Z,2.70
2023-05-01T07:02:46.811Z,2.60
2023-05-01T07:05:14.018Z,2.80
2023-05-01T07:07:50.425Z,2.90
2023-05-01T07:10:25.321Z,2.40
2023-05-01T07:12:52.987Z,2.20
2023-05-01T07:15:20.122Z,2.40
2023-05-01T07:17:47.202Z,2.50
2023-05-01T07:20:17.030Z,2.60
2023-05-01T07:22:44.308Z,2.60
2023-05-01T07:25:11.272Z,2.40
2023-05-01T07:27:38.244Z,2.70
2023-05-01T07:30:06.208Z,2.20
2023-05-01T07:32:33.405Z,2.30
2023-05-01T07:35:00.498Z,1.60
2023-05-01T07:37:28.885Z,2.30
2023-05-01T07:39:57.324Z,2.50
2023-05-01T07:42:24.487Z,2.60
2023-05-01T07:44:51.974Z,2.90
2023-05-01T07:47:19.849Z,3.00
2023-05-01T07:49:46.779Z,3.40
2023-05-01T07:52:14.085Z,3.70
2023-05-01T07:54:41.894Z,4.00
2023-05-01T07:57:08.822Z,3.40
2023-05-01T07:59:35.793Z,4.00
2023-05-01T08:02:04.192Z,5.70
2023-05-01T08:04:31.652Z,6.30
2023-05-01T08:06:58.760Z,6.00
2023-05-01T08:09:26.126Z,5.50
2023-05-01T08:11:53.098Z,4.80
2023-05-01T08:14:20.938Z,6.20
2023-05-01T08:16:48.258Z,6.60
2023-05-01T08:19:15.421Z,6.90
2023-05-01T08:21:42.401Z,6.90
2023-05-01T08:24:10.772Z,5.10
2023-05-01T08:26:38.022Z,5.30
2023-05-01T08:29:04.968Z,6.50
2023-05-01T08:31:31.974Z,6.50
2023-05-01T08:33:59.426Z,6.80
2023-05-01T08:36:27.440Z,6.70
2023-05-01T08:38:54.355Z,6.70
2023-05-01T08:41:22.582Z,4.90
2023-05-01T08:43:50.232Z,4.60
2023-05-01T08:46:26.975Z,5.50
2023-05-01T08:48:58.169Z,6.00
2023-05-01T08:51:26.404Z,5.60
2023-05-01T08:53:56.228Z,5.70
2023-05-01T08:56:23.885Z,3.60
2023-05-01T08:58:51.175Z,4.00
2023-05-01T09:01:20.890Z,4.40
2023-05-01T09:03:50.098Z,5.10
2023-05-01T09:06:17.398Z,4.80
2023-05-01T09:08:44.473Z,4.40
2023-05-01T09:11:12.366Z,5.00
2023-05-01T09:13:40.193Z,3.60
2023-05-01T09:16:10.654Z,3.30
2023-05-01T09:18:38.593Z,3.50
2023-05-01T09:21:06.458Z,3.70
2023-05-01T09:23:35.947Z,3.50
2023-05-01T09:26:06.061Z,4.60
2023-05-01T09:28:47.253Z,4.10
2023-05-01T09:31:26.707Z,3.90
2023-05-01T09:34:02.542Z,3.60
2023-05-01T09:36:34.499Z,2.90
2023-05-01T09:39:02.793Z,3.20
2023-05-01T09:41:33.157Z,3.30
2023-05-01T09:44:00.366Z,3.70
2023-05-01T09:46:27.684Z,3.70
2023-05-01T09:49:03.311Z,3.80
2023-05-01T09:51:31.526Z,3.40
2023-05-01T09:54:05.556Z,3.00
2023-05-01T09:56:34.405Z,2.20
2023-05-01T09:59:21.276Z,2.90
2023-05-01T10:01:50.666Z,2.90
2023-05-01T10:04:18.306Z,3.00
2023-05-01T10:06:45.532Z,3.40
2023-05-01T10:09:27.871Z,3.50
2023-05-01T10:11:57.886Z,3.70
2023-05-01T10:14:27.023Z,3.20
2023-05-01T10:16:54.628Z,2.60
2023-05-01T10:19:22.276Z,3.30
2023-05-01T10:21:50.095Z,3.20
2023-05-01T10:24:17.498Z,3.00
2023-05-01T10:26:45.098Z,3.50
2023-05-01T10:29:16.566Z,3.40
2023-05-01T10:31:43.886Z,3.60
2023-05-01T10:34:17.029Z,3.10
2023-05-01T10:36:51.099Z,3.10
2023-05-01T10:39:35.202Z,3.10
2023-05-01T10:42:11.470Z,3.10
2023-05-01T10:44:38.775Z,3.30
2023-05-01T10:47:34.958Z,3.00
2023-05-01T10:50:17.899Z,3.10
2023-05-01T10:53:10.140Z,3.20
2023-05-01T10:55:45.310Z,2.90
2023-05-01T10:58:14.153Z,2.90
2023-05-01T11:00:41.478Z,2.30
2023-05-01T11:03:23.720Z,2.80
2023-05-01T11:06:00.217Z,2.80
2023-05-01T11:08:38.611Z,2.60
2023-05-01T11:11:27.237Z,3.30
2023-05-01T11:14:08.472Z,2.90
2023-05-01T11:16:39.134Z,2.10
2023-05-01T11:19:08.061Z,2.40
2023-05-01T11:21:37.046Z,2.60
2023-05-01T11:24:05.155Z,2.50
2023-05-01T11:26:33.570Z,3.10
2023-05-01T11:29:02.206Z,3.40
2023-05-01T11:31:36.422Z,2.90
2023-05-01T11:34:06.909Z,3.70
2023-05-01T11:36:50.889Z,3.10
2023-05-01T11:39:19.280Z,3.70
2023-05-01T11:41:47.034Z,2.20
2023-05-01T11:44:18.939Z,2.40
2023-05-01T11:46:46.244Z,2.50
2023-05-01T11:49:13.188Z,2.70
2023-05-01T11:51:40.258Z,2.60
2023-05-01T11:54:15.936Z,3.00
2023-05-01T11:56:49.912Z,2.80
2023-05-01T11:59:17.455Z,2.80
2023-05-01T12:01:47.326Z,2.80
2023-05-01T12:04:24.684Z,2.50
2023-05-01T12:06:53.376Z,1.80
2023-05-01T12:09:22.653Z,2.20
2023-05-01T12:11:53.132Z,2.70
2023-05-01T12:14:21.817Z,2.50
2023-05-01T12:16:49.643Z,2.90
2023-05-01T12:19:17.698Z,2.90
2023-05-01T12:21:46.588Z,2.70
2023-05-01T12:24:16.779Z,3.00
2023-05-01T12:26:45.368Z,3.10
2023-05-01T12:29:12.762Z,3.00
2023-05-01T12:31:59.586Z,2.00
2023-05-01T12:34:31.423Z,2.10
2023-05-01T12:36:58.299Z,2.80
2023-05-01T12:39:26.868Z,2.50
2023-05-01T12:41:54.896Z,2.90
2023-05-01T12:44:22.877Z,2.60
2023-05-01T12:46:57.050Z,3.20
2023-05-01T12:49:24.814Z,2.80
2023-05-01T12:51:56.693Z,1.90
2023-05-01T12:54:24.688Z,1.80
2023-05-01T12:56:55.316Z,2.20
2023-05-01T12:59:25.845Z,2.10
2023-05-01T13:02:04.231Z,2.30
2023-05-01T13:04:32.360Z,2.50
2023-05-01T13:07:00.244Z,2.50
2023-05-01T13:09:32.606Z,2.70
2023-05-01T13:12:07.925Z,3.00
2023-05-01T13:14:42.658Z,2.30
2023-05-01T13:17:12.246Z,2.00
2023-05-01T13:19:39.890Z,2.60
2023-05-01T13:22:07.078Z,1.80
2023-05-01T13:24:46.433Z,2.50
2023-05-01T13:27:13.549Z,2.10
2023-05-01T13:29:44.993Z,2.50
2023-05-01T13:32:12.520Z,2.50
2023-05-01T13:34:42.884Z,2.40
2023-05-01T13:37:14.353Z,2.60
2023-05-01T13:39:43.430Z,2.10
2023-05-01T13:42:25.868Z,1.90
2023-05-01T13:44:55.138Z,2.30
2023-05-01T13:47:27.849Z,2.20
2023-05-01T13:49:55.899Z,2.70
2023-05-01T13:52:23.656Z,2.60
2023-05-01T13:54:56.168Z,3.00
2023-05-01T13:57:23.602Z,2.80
2023-05-01T13:59:50.732Z,3.00
2023-05-01T14:02:27.312Z,2.00
2023-05-01T14:04:56.112Z,1.90
2023-05-01T14:07:26.091Z,2.30
2023-05-01T14:09:56.325Z,2.40
2023-05-01T14:12:33.302Z,3.10
2023-05-01T14:15:01.395Z,2.70
2023-05-01T14:17:34.910Z,2.90
2023-05-01T14:20:05.113Z,3.00
2023-05-01T14:22:43.979Z,3.30
2023-05-01T14:25:39.051Z,2.90
2023-05-01T14:28:09.974Z,2.30
2023-05-01T14:30:39.260Z,2.30
2023-05-01T14:33:14.763Z,2.70
2023-05-01T14:35:54.678Z,2.80
2023-05-01T14:38:25.842Z,2.60
2023-05-01T14:40:53.475Z,3.00
2023-05-01T14:43:24.775Z,2.90
2023-05-01T14:45:52.497Z,3.30
2023-05-01T14:48:24.746Z,3.30
2023-05-01T14:50:55.162Z,2.40
2023-05-01T14:53:23.780Z,2.70
2023-05-01T14:55:53.158Z,2.60
2023-05-01T14:58:21.754Z,3.20
2023-05-01T15:00:49.950Z,3.10
2023-05-01T15:03:17.779Z,3.20
2023-05-01T15:05:46.979Z,3.20
2023-05-01T15:08:14.922Z,3.10
2023-05-01T15:10:46.934Z,3.70
2023-05-01T15:13:14.292Z,3.10
2023-05-01T15:15:41.886Z,2.40
2023-05-01T15:18:13.140Z,3.00
2023-05-01T15:20:41.404Z,2.80
2023-05-01T15:23:09.192Z,3.20
2023-05-01T15:25:37.543Z,3.10
2023-05-01T15:28:08.764Z,3.20
2023-05-01T15:30:39.718Z,3.60
2023-05-01T15:33:16.077Z,3.40
2023-05-01T15:35:48.644Z,3.20
2023-05-01T15:38:21.811Z,2.30
2023-05-01T15:40:52.664Z,3.00
2023-05-01T15:43:20.022Z,3.10
2023-05-01T15:45:50.767Z,3.70
2023-05-01T15:48:18.381Z,3.50
2023-05-01T15:50:47.426Z,3.50
2023-05-01T15:53:17.471Z,4.00
2023-05-01T15:55:45.076Z,3.90
2023-05-01T15:58:14.172Z,3.20
2023-05-01T16:00:41.402Z,2.70
2023-05-01T16:03:08.895Z,3.60
2023-05-01T16:05:37.445Z,3.20
2023-05-01T16:08:07.782Z,3.40
2023-05-01T16:10:38.583Z,3.50
2023-05-01T16:13:08.684Z,3.50
2023-05-01T16:15:39.511Z,3.00
2023-05-01T16:18:08.122Z,3.60
2023-05-01T16:20:41.571Z,2.90
2023-05-01T16:23:09.071Z,2.60
2023-05-01T16:25:36.484Z,3.30
2023-05-01T16:28:07.810Z,3.30
2023-05-01T16:30:34.843Z,3.10
2023-05-01T16:33:03.500Z,4.10
2023-05-01T16:35:30.591Z,3.50
2023-05-01T16:38:00.030Z,4.00
2023-05-01T16:40:27.050Z,5.10
2023-05-01T16:42:55.117Z,7.20
2023-05-01T16:45:22.363Z,8.00
2023-05-01T16:47:50.003Z,11.00
2023-05-01T16:50:20.154Z,11.00
2023-05-01T16:52:47.611Z,12.30
2023-05-01T16:55:15.061Z,11.50
2023-05-01T16:57:44.573Z,9.10
2023-05-01T17:00:12.738Z,7.50
2023-05-01T17:02:40.730Z,10.00
2023-05-01T17:05:09.219Z,9.60
2023-05-01T17:07:36.234Z,10.30
2023-05-01T17:10:04.492Z,11.20
2023-05-01T17:12:31.766Z,11.80
2023-05-01T17:14:58.708Z,9.80
2023-05-01T17:17:26.407Z,8.80
2023-05-01T17:19:56.055Z,9.50
2023-05-01T17:22:25.187Z,9.30
2023-05-01T17:24:53.349Z,10.20
2023-05-01T17:27:20.405Z,10.00
2023-05-01T17:29:47.651Z,11.00
2023-05-01T17:32:20.259Z,8.60
2023-05-01T17:34:59.063Z,7.30
2023-05-01T17:37:26.200Z,8.00
2023-05-01T17:39:53.254Z,8.50
2023-05-01T17:42:20.502Z,8.10
2023-05-01T17:44:47.914Z,9.30
2023-05-01T17:47:15.534Z,8.50
2023-05-01T17:49:45.195Z,7.10
2023-05-01T17:52:12.541Z,6.60
2023-05-01T17:54:39.866Z,6.70
2023-05-01T17:57:08.525Z,6.80
2023-05-01T17:59:35.864Z,6.90
2023-05-01T18:02:04.398Z,6.70
2023-05-01T18:04:32.549Z,7.30
2023-05-01T18:07:00.905Z,6.30
2023-05-01T18:09:28.166Z,6.00
2023-05-01T18:11:55.201Z,6.00
2023-05-01T18:14:22.155Z,6.10
2023-05-01T18:16:49.148Z,6.40
2023-05-01T18:19:16.146Z,5.90
2023-05-01T18:21:43.100Z,6.40
2023-05-01T18:24:14.454Z,5.90
2023-05-01T18:26:41.411Z,5.70
2023-05-01T18:29:09.925Z,4.10
2023-05-01T18:31:38.370Z,5.30
2023-05-01T18:34:07.342Z,4.60
2023-05-01T18:36:34.391Z,4.70
2023-05-01T18:39:02.152Z,4.70
2023-05-01T18:41:29.307Z,4.90
2023-05-01T18:43:58.497Z,4.70
2023-05-01T18:46:26.966Z,3.30
2023-05-01T18:48:54.174Z,4.00
2023-05-01T18:51:21.797Z,3.80
2023-05-01T18:53:48.864Z,3.80
2023-05-01T18:56:19.603Z,4.70
2023-05-01T18:58:49.286Z,4.10
2023-05-01T19:01:16.575Z,3.60
2023-05-01T19:03:43.692Z,3.20
2023-05-01T19:06:12.124Z,3.30
2023-05-01T19:08:39.418Z,3.30
2023-05-01T19:11:06.470Z,3.00
2023-05-01T19:13:33.718Z,3.60
2023-05-01T19:16:01.020Z,3.70
2023-05-01T19:18:28.125Z,3.60
2023-05-01T19:20:56.782Z,3.40
2023-05-01T19:23:25.397Z,2.70
2023-05-01T19:25:52.430Z,3.00
2023-05-01T19:28:20.436Z,3.00
2023-05-01T19:30:47.407Z,3.40
2023-05-01T19:33:14.585Z,3.70
2023-05-01T19:35:44.206Z,3.30
2023-05-01T19:38:11.156Z,3.60
2023-05-01T19:40:39.899Z,3.00
2023-05-01T19:43:09.240Z,3.00
2023-05-01T19:45:36.602Z,3.40
2023-05-01T19:48:03.809Z,3.20
2023-05-01T19:50:33.614Z,3.10
2023-05-01T19:53:01.118Z,4.00
2023-05-01T19:55:28.699Z,3.50
2023-05-01T19:57:56.245Z,3.30
2023-05-01T20:00:23.597Z,3.00
2023-05-01T20:02:50.683Z,2.80
2023-05-01T20:05:18.235Z,3.10
2023-05-01T20:07:45.554Z,3.40
2023-05-01T20:10:12.603Z,3.50
2023-05-01T20:12:39.755Z,3.30
2023-05-01T20:15:07.638Z,3.30
2023-05-01T20:17:35.681Z,3.40
2023-05-01T20:20:03.358Z,2.90
2023-05-01T20:22:30.403Z,2.50
2023-05-01T20:24:59.656Z,3.10
2023-05-01T20:27:27.580Z,3.00
2023-05-01T20:29:54.622Z,3.10
2023-05-01T20:32:21.676Z,3.60
2023-05-01T20:34:48.600Z,3.30
2023-05-01T20:37:18.108Z,3.30
2023-05-01T20:39:44.976Z,2.70
2023-05-01T20:42:11.940Z,3.00
2023-05-01T20:44:40.483Z,3.10
2023-05-01T20:47:11.901Z,3.30
2023-05-01T20:49:39.410Z,2.90
2023-05-01T20:52:09.460Z,3.10
2023-05-01T20:54:38.716Z,2.80
2023-05-01T20:57:09.272Z,2.60
2023-05-01T20:59:39.660Z,3.20
2023-05-01T21:02:07.512Z,3.00
2023-05-01T21:04:34.682Z,2.90
2023-05-01T21:07:01.634Z,2.90
2023-05-01T21:09:29.178Z,3.00
2023-05-01T21:11:56.280Z,2.60
2023-05-01T21:14:23.219Z,2.40
2023-05-01T21:16:50.212Z,2.70
2023-05-01T21:19:17.176Z,2.90
2023-05-01T21:21:44.216Z,3.00
2023-05-01T21:24:23.228Z,3.50
2023-05-01T21:26:50.720Z,2.80
2023-05-01T21:29:18.877Z,2.90
2023-05-01T21:31:45.983Z,2.50
2023-05-01T21:34:17.511Z,2.40
2023-05-01T21:36:45.298Z,2.40
2023-05-01T21:39:14.950Z,2.30
2023-05-01T21:41:42.205Z,2.80
2023-05-01T21:44:09.626Z,2.80
2023-05-01T21:46:37.666Z,3.20
2023-05-01T21:49:04.776Z,3.00
2023-05-01T21:51:34.799Z,2.90
2023-05-01T21:54:02.505Z,2.40
2023-05-01T21:56:29.915Z,2.70
2023-05-01T21:59:05.564Z,2.60
2023-05-01T22:01:32.629Z,2.90
2023-05-01T22:04:00.233Z,2.80
2023-05-01T22:06:28.510Z,2.80
2023-05-01T22:08:59.041Z,2.60
2023-05-01T22:11:29.410Z,2.50
2023-05-01T22:14:00.031Z,2.60
2023-05-01T22:16:27.460Z,2.40
2023-05-01T22:18:54.845Z,2.60
2023-05-01T22:21:23.332Z,2.70
2023-05-01T22:23:50.148Z,2.70
2023-05-01T22:26:17.224Z,3.00
2023-05-01T22:28:46.562Z,2.90
2023-05-01T22:31:14.277Z,2.60
2023-05-01T22:33:41.546Z,2.20
2023-05-01T22:36:10.840Z,2.80
2023-05-01T22:38:37.880Z,2.60
2023-05-01T22:41:06.765Z,2.40
2023-05-01T22:43:35.254Z,2.70
2023-05-01T22:46:02.930Z,2.70
2023-05-01T22:48:29.865Z,3.00
2023-05-01T22:50:56.830Z,2.60
2023-05-01T22:53:24.003Z,2.40
2023-05-01T22:55:51.036Z,2.80
2023-05-01T22:58:18.059Z,2.30
2023-05-01T23:00:45.011Z,2.70
2023-05-01T23:03:12.391Z,2.60
2023-05-01T23:05:39.393Z,2.50
2023-05-01T23:08:06.655Z,2.70
2023-05-01T23:10:33.995Z,2.70
2023-05-01T23:13:01.673Z,2.20
2023-05-01T23:15:28.531Z,2.20
2023-05-01T23:17:56.423Z,2.60
2023-05-01T23:20:24.655Z,2.70
2023-05-01T23:22:51.944Z,2.70
2023-05-01T23:25:28.520Z,2.80
2023-05-01T23:27:56.908Z,2.60
2023-05-01T23:30:23.968Z,2.10
2023-05-01T23:32:51.356Z,2.20
2023-05-01T23:35:23.897Z,2.10
2023-05-01T23:37:53.029Z,3.00
2023-05-01T23:40:20.057Z,2.30
2023-05-01T23:42:47.466Z,2.60
2023-05-01T23:45:14.490Z,2.70
2023-05-01T23:47:41.429Z,3.10
2023-05-01T23:50:08.937Z,2.50
2023-05-01T23:52:36.464Z,2.70
2023-05-01T23:55:03.526Z,2.80
2023-05-01T23:57:30.422Z,2.90
2023-05-01T23:59:57.864Z,2.60
